Main page
METAR-TAF:

METAR-TAF

Airports :

Bonriki International Airport

Tarawa, Kiribati

latitude: 01-21N, longitude: 172-55E, elevation: 2 m

Current weather observation

The report was made 1 hour and 3 minutes ago, at 15:00 UTC
Wind 7 kt from the East
Temperature 28°C
Humidity 74%
Pressure 1010 hPa
Visibility 10 km or more
Few clouds at a height of 2000 ft

METAR: NGTA 291500Z 10007KT 9999 FEW020 28/23 Q1010

Time: 06:03 (16:03 UTC)

Forecast

The report was made 4 hours and 44 minutes ago, at 11:19 UTC
Forecast valid from 29 at 12 UTC to 30 at 12 UTC
Wind 9 kt from the East/Southeast
Visibility 10 km or more
Few clouds at a height of 1900 ft
Temporary
from 29 at 12 UTC to 30 at 06 UTC
Visibility: 5000 m
Broken clouds at a height of 1600 ft
rain showers

TAF: NGTA 291119Z 2912/3012 11009KT 9999 FEW019 PRO40 TEMPO 2912/3006 5000 SHRA BKN016

Weather observations and forecasts of more than 4000 airports (METAR and TAF reports).

The available stations are represented by yellow and red dots on the map.

Hover mouse over dot to see the name of the station.

Then click to see weather observations and forecasts.

To change the map : click on the green buttons with a black cross to zoom in, on the green button with a dash to zoom out, or on the green arrows for adjacent maps.


METAR-TAF: